createdAt,value
2019-05-25T00:03:04.679Z,3.07
2019-05-25T00:08:08.182Z,2.93
2019-05-25T00:13:11.738Z,2.83
2019-05-25T00:18:14.867Z,3.03
2019-05-25T00:23:18.117Z,2.80
2019-05-25T00:28:21.029Z,3.83
2019-05-25T00:33:23.919Z,3.10
2019-05-25T00:38:27.090Z,4.37
2019-05-25T00:43:30.552Z,2.73
2019-05-25T00:48:33.856Z,4.10
2019-05-25T00:53:37.072Z,4.00
2019-05-25T00:58:39.971Z,3.43
2019-05-25T01:03:43.459Z,2.47
2019-05-25T01:08:46.691Z,3.57
2019-05-25T01:13:49.603Z,4.30
2019-05-25T01:18:52.811Z,3.80
2019-05-25T01:23:57.055Z,3.97
2019-05-25T01:29:00.252Z,3.30
2019-05-25T01:34:03.178Z,3.20
2019-05-25T01:39:06.493Z,3.60
2019-05-25T01:44:09.721Z,3.67
2019-05-25T01:49:12.978Z,3.60
2019-05-25T01:54:16.567Z,3.00
2019-05-25T01:59:19.840Z,3.10
2019-05-25T02:04:23.339Z,3.27
2019-05-25T02:09:26.499Z,3.53
2019-05-25T02:14:29.405Z,3.53
2019-05-25T02:19:32.249Z,2.70
2019-05-25T02:24:35.409Z,3.00
2019-05-25T02:29:38.683Z,3.10
2019-05-25T02:34:41.882Z,3.10
2019-05-25T02:39:45.386Z,4.80
2019-05-25T02:44:48.712Z,3.00
2019-05-25T02:49:51.619Z,4.73
2019-05-25T02:54:55.533Z,3.77
2019-05-25T02:59:58.440Z,3.30
2019-05-25T03:05:01.751Z,3.67
2019-05-25T03:10:05.253Z,2.80
2019-05-25T03:15:09.142Z,2.60
2019-05-25T03:20:13.138Z,2.60
2019-05-25T03:25:16.180Z,2.80
2019-05-25T03:30:33.210Z,2.67
2019-05-25T03:35:36.669Z,2.50
2019-05-25T03:40:39.905Z,2.70
2019-05-25T03:45:43.301Z,3.03
2019-05-25T03:50:46.536Z,2.13
2019-05-25T03:56:02.967Z,2.80
2019-05-25T04:00:54.573Z,3.20
2019-05-25T04:05:57.730Z,2.80
2019-05-25T04:11:00.868Z,2.67
2019-05-25T04:16:03.359Z,3.37
2019-05-25T04:21:08.481Z,2.90
2019-05-25T04:26:21.844Z,2.17
2019-05-25T04:31:16.751Z,2.90
2019-05-25T04:36:19.416Z,2.10
2019-05-25T04:41:22.417Z,2.50
2019-05-25T04:46:25.617Z,2.40
2019-05-25T04:51:29.100Z,2.13
2019-05-25T04:56:39.533Z,1.97
2019-05-25T05:01:39.030Z,2.23
2019-05-25T05:06:43.199Z,1.93
2019-05-25T05:11:46.659Z,2.20
2019-05-25T05:16:49.987Z,1.50
2019-05-25T05:21:55.693Z,1.67
2019-05-25T05:26:58.837Z,1.60
2019-05-25T05:32:02.301Z,1.53
2019-05-25T05:37:06.954Z,1.70
2019-05-25T05:42:13.450Z,1.50
2019-05-25T05:47:17.108Z,1.87
2019-05-25T05:52:21.165Z,1.80
2019-05-25T05:57:24.477Z,1.90
2019-05-25T06:02:27.797Z,1.80
2019-05-25T06:07:30.994Z,2.20
2019-05-25T06:12:33.534Z,1.50
2019-05-25T06:17:36.837Z,2.33
2019-05-25T06:22:40.371Z,1.40
2019-05-25T06:27:43.182Z,1.73
2019-05-25T06:32:46.339Z,1.67
2019-05-25T06:37:48.844Z,1.77
2019-05-25T06:42:52.392Z,2.20
2019-05-25T06:47:55.865Z,2.07
2019-05-25T06:52:59.178Z,1.87
2019-05-25T06:58:02.390Z,1.90
2019-05-25T07:03:05.601Z,1.60
2019-05-25T07:08:08.497Z,1.73
2019-05-25T07:13:11.880Z,1.57
2019-05-25T07:18:15.002Z,1.87
2019-05-25T07:23:18.216Z,1.20
2019-05-25T07:28:24.094Z,1.70
2019-05-25T07:33:29.032Z,1.70
2019-05-25T07:38:31.910Z,2.27
2019-05-25T07:43:35.537Z,2.00
2019-05-25T07:48:39.389Z,2.67
2019-05-25T07:53:42.922Z,1.90
2019-05-25T07:58:48.682Z,2.40
2019-05-25T08:03:52.045Z,2.00
2019-05-25T08:08:55.373Z,2.27
2019-05-25T08:13:58.620Z,2.17
2019-05-25T08:19:01.945Z,2.23
2019-05-25T08:24:05.135Z,2.27
2019-05-25T08:29:08.044Z,3.10
2019-05-25T08:34:11.910Z,1.90
2019-05-25T08:39:15.358Z,2.50
2019-05-25T08:44:18.718Z,2.43
2019-05-25T08:49:22.229Z,2.63
2019-05-25T08:54:28.248Z,2.17
2019-05-25T08:59:31.772Z,2.30
2019-05-25T09:04:34.673Z,2.53
2019-05-25T09:09:37.717Z,2.40
2019-05-25T09:14:43.440Z,3.10
2019-05-25T09:19:46.801Z,2.67
2019-05-25T09:24:50.031Z,1.80
2019-05-25T09:29:53.526Z,1.83
2019-05-25T09:34:56.337Z,2.90
2019-05-25T09:39:59.303Z,1.63
2019-05-25T09:45:02.873Z,2.70
2019-05-25T09:50:06.602Z,3.20
2019-05-25T09:55:10.827Z,1.77
2019-05-25T10:00:14.753Z,2.80
2019-05-25T10:05:18.334Z,2.17
2019-05-25T10:10:22.351Z,2.50
2019-05-25T10:15:28.363Z,2.20
2019-05-25T10:20:31.100Z,2.20
2019-05-25T10:25:34.326Z,2.60
2019-05-25T10:30:37.905Z,2.57
2019-05-25T10:35:40.384Z,2.23
2019-05-25T10:40:43.585Z,2.40
2019-05-25T10:45:46.489Z,2.60
2019-05-25T10:50:50.016Z,3.60
2019-05-25T10:55:53.220Z,2.13
2019-05-25T11:00:56.773Z,2.50
2019-05-25T11:05:59.739Z,3.00
2019-05-25T11:11:02.622Z,2.53
2019-05-25T11:16:05.315Z,2.30
2019-05-25T11:21:08.143Z,2.97
2019-05-25T11:26:11.149Z,2.30
2019-05-25T11:31:14.382Z,2.37
2019-05-25T11:36:17.570Z,1.80
2019-05-25T11:41:21.211Z,2.70
2019-05-25T11:46:24.704Z,1.80
2019-05-25T11:51:28.296Z,3.03
2019-05-25T11:56:31.451Z,3.00
2019-05-25T12:01:34.637Z,2.67
2019-05-25T12:06:37.958Z,1.97
2019-05-25T12:11:41.466Z,2.37
2019-05-25T12:16:45.470Z,2.43
2019-05-25T12:21:48.854Z,2.27
2019-05-25T12:26:52.077Z,2.00
2019-05-25T12:32:03.598Z,1.97
2019-05-25T12:37:00.355Z,2.70
2019-05-25T12:42:03.869Z,2.10
